Time;durP1;ratioP1;P1;durP2;ratioP2;P2;SDS_P1;SDS_P2;PMS_P1;PMS_P2;Temp;Humidity;BMP_temperature;BMP_pressure;BME280_temperature;BME280_humidity;BME280_pressure;Samples;Min_cycle;Max_cycle;Signal;HPM_P1;HPM_P2
2022/01/18 00:01:57;;;;;;;24.55;16.40;;;153.70;2252.80;;;;;;5032957;28;20420;-83
2022/01/18 00:04:24;;;;;;;22.77;13.43;;;153.70;2252.80;;;;;;5035091;28;20029;-84
2022/01/18 00:06:52;;;;;;;11.82;5.57;;;153.60;2252.80;;;;;;5036171;28;20025;-84
2022/01/18 00:09:21;;;;;;;12.02;5.93;;;153.70;2252.80;;;;;;5034986;28;20021;-83
2022/01/18 00:11:55;;;;;;;10.57;6.78;;;153.80;2252.80;;;;;;5035075;28;20108;-86
2022/01/18 00:14:40;;;;;;;12.38;6.97;;;153.80;2252.80;;;;;;5033933;28;20021;-84
2022/01/18 00:17:17;;;;;;;15.32;9.52;;;153.80;2252.80;;;;;;5035908;28;20025;-82
2022/01/18 00:19:53;;;;;;;14.38;8.50;;;153.70;2252.80;;;;;;5036064;28;20055;-87
2022/01/18 00:22:19;;;;;;;11.50;6.07;;;153.70;2252.80;;;;;;5034593;28;20029;-80
2022/01/18 00:24:45;;;;;;;11.38;6.50;;;128.90;2252.80;;;;;;5034512;28;20021;-82
2022/01/18 00:27:15;;;;;;;10.43;6.30;;;153.60;2252.80;;;;;;5035932;28;20083;-84
2022/01/18 00:30:05;;;;;;;14.43;7.72;;;128.90;2252.80;;;;;;5034572;28;20112;-82
2022/01/18 00:32:45;;;;;;;18.27;10.18;;;128.90;2252.80;;;;;;5034837;28;20121;-78
2022/01/18 00:35:11;;;;;;;14.95;9.38;;;128.90;2252.80;;;;;;5034573;28;20022;-80
2022/01/18 00:37:50;;;;;;;15.38;8.40;;;128.80;2252.80;;;;;;5034903;28;20112;-81
2022/01/18 00:40:16;;;;;;;11.57;7.53;;;128.80;2252.80;;;;;;5034461;28;20027;-84
2022/01/18 00:42:45;;;;;;;15.95;9.77;;;128.60;2252.80;;;;;;5034065;28;20021;-83
2022/01/18 00:45:19;;;;;;;18.77;9.70;;;128.60;2252.80;;;;;;5034375;28;20027;-85
2022/01/18 00:47:46;;;;;;;18.42;11.35;;;128.50;2252.80;;;;;;5034536;28;20029;-84
2022/01/18 00:50:12;;;;;;;13.80;7.35;;;128.50;2252.80;;;;;;5034559;28;20029;-84
2022/01/18 00:52:43;;;;;;;11.48;5.70;;;128.50;2252.80;;;;;;5034383;28;20036;-84
2022/01/18 00:55:10;;;;;;;16.77;8.55;;;128.40;2252.80;;;;;;5033927;28;20033;-83
2022/01/18 00:57:36;;;;;;;9.02;5.65;;;128.40;2252.80;;;;;;5034175;28;20031;-84
2022/01/18 01:00:03;;;;;;;12.93;6.63;;;128.30;2252.80;;;;;;5033934;28;20100;-85
2022/01/18 01:02:29;;;;;;;10.88;6.68;;;128.30;2252.80;;;;;;5033721;28;20049;-84
2022/01/18 01:04:55;;;;;;;16.05;9.07;;;128.30;2252.80;;;;;;5033846;28;20022;-85
2022/01/18 01:07:23;;;;;;;20.38;11.52;;;128.30;2252.80;;;;;;5034143;28;20032;-84
2022/01/18 01:09:50;;;;;;;22.60;13.15;;;128.20;2252.80;;;;;;5034049;28;20021;-84
2022/01/18 01:12:19;;;;;;;24.40;13.98;;;128.20;2252.80;;;;;;5034021;28;20116;-85
2022/01/18 01:14:47;;;;;;;15.60;10.02;;;128.20;2252.80;;;;;;5034061;28;20025;-85
2022/01/18 01:37:14;;;;;;;17.48;9.00;;;103.20;2227.20;;;;;;5034853;28;20025;-85
2022/01/18 01:44:37;;;;;;;19.13;11.10;;;103.10;2227.20;;;;;;5034660;28;20028;-84
2022/01/18 01:47:04;;;;;;;14.27;7.82;;;103.00;2227.20;;;;;;5033392;28;20048;-85
2022/01/18 01:49:33;;;;;;;16.25;8.23;;;103.00;2227.20;;;;;;5033525;28;20024;-84
2022/01/18 01:52:02;;;;;;;12.88;7.47;;;102.90;2227.20;;;;;;5033366;28;20029;-85
2022/01/18 01:54:28;;;;;;;17.20;9.70;;;102.90;2227.20;;;;;;5033168;28;20017;-84
2022/01/18 01:56:57;;;;;;;12.15;7.40;;;102.90;2227.20;;;;;;5029945;28;20040;-84
2022/01/18 01:59:23;;;;;;;8.80;5.55;;;102.80;2227.20;;;;;;5034512;28;20099;-84
2022/01/18 02:01:49;;;;;;;11.43;5.03;;;102.80;2227.20;;;;;;5033053;28;20462;-85
2022/01/18 02:04:18;;;;;;;12.50;6.30;;;102.80;2227.20;;;;;;5033206;28;20025;-84
2022/01/18 02:06:44;;;;;;;14.60;6.47;;;102.60;2227.20;;;;;;5033212;28;20125;-85
2022/01/18 02:09:10;;;;;;;10.38;5.20;;;102.70;2227.20;;;;;;5033004;28;20079;-84
2022/01/18 02:11:36;;;;;;;7.00;4.90;;;102.70;2227.20;;;;;;5033064;28;20044;-85
2022/01/18 02:14:04;;;;;;;7.85;5.55;;;102.80;2227.20;;;;;;5033392;28;20021;-84
2022/01/18 02:22:04;;;;;;;16.92;8.45;;;102.70;2227.20;;;;;;5034107;28;20033;-84
2022/01/18 02:24:30;;;;;;;25.77;12.00;;;102.70;2227.20;;;;;;5033050;28;20013;-85
2022/01/18 02:26:56;;;;;;;10.07;5.15;;;102.70;2227.20;;;;;;5032629;28;20129;-84
2022/01/18 02:29:22;;;;;;;8.95;5.20;;;102.60;2227.20;;;;;;5032726;28;20030;-84
2022/01/18 02:31:48;;;;;;;10.70;5.63;;;102.70;2227.20;;;;;;5032731;28;20083;-83
2022/01/18 02:34:19;;;;;;;13.70;6.30;;;102.70;2227.20;;;;;;5033212;28;20075;-84
2022/01/18 02:36:45;;;;;;;14.40;6.55;;;102.70;2227.20;;;;;;5032724;28;20021;-85
2022/01/18 02:39:12;;;;;;;14.10;7.70;;;102.70;2227.20;;;;;;5035165;28;20022;-84
2022/01/18 02:41:39;;;;;;;10.77;6.32;;;102.70;2227.20;;;;;;5036777;28;20041;-84
2022/01/18 02:44:12;;;;;;;9.57;5.38;;;102.70;2227.20;;;;;;5037714;28;20021;-85
2022/01/18 02:46:39;;;;;;;10.25;5.07;;;102.80;2227.20;;;;;;5037213;28;20057;-86
2022/01/18 02:49:06;;;;;;;21.65;11.27;;;102.70;2227.20;;;;;;5036772;28;20113;-85
2022/01/18 02:51:34;;;;;;;25.50;12.07;;;102.70;2227.20;;;;;;5036250;28;20029;-83
2022/01/18 02:54:10;;;;;;;17.38;8.57;;;102.60;2227.20;;;;;;5036517;28;20032;-84
2022/01/18 02:56:45;;;;;;;8.30;3.80;;;102.60;2227.20;;;;;;5036514;28;20045;-83
2022/01/18 02:59:20;;;;;;;25.35;11.15;;;102.60;2227.20;;;;;;5036370;28;20022;-84
2022/01/18 03:04:39;;;;;;;17.20;7.72;;;102.60;2227.20;;;;;;5037369;28;20072;-84
2022/01/18 03:07:06;;;;;;;13.23;6.68;;;102.60;2227.20;;;;;;5036232;28;20052;-85
2022/01/18 03:09:38;;;;;;;8.65;5.30;;;102.60;2227.20;;;;;;5036010;28;20022;-84
2022/01/18 03:12:08;;;;;;;16.85;7.38;;;102.70;2227.20;;;;;;5036120;28;20037;-84
2022/01/18 03:14:41;;;;;;;15.25;8.38;;;102.70;2227.20;;;;;;5036031;28;20091;-84
2022/01/18 03:17:07;;;;;;;28.58;12.57;;;102.70;2227.20;;;;;;5036090;28;20021;-84
2022/01/18 03:19:34;;;;;;;13.50;5.63;;;102.60;2227.20;;;;;;5035972;28;20029;-84
2022/01/18 03:22:00;;;;;;;13.75;5.63;;;102.50;2227.20;;;;;;5035866;28;20457;-84
2022/01/18 03:29:36;;;;;;;10.70;4.80;;;102.40;2227.20;;;;;;5037273;28;20496;-84
2022/01/18 03:32:31;;;;;;;8.52;4.50;;;102.40;2227.20;;;;;;5035684;28;20022;-85
2022/01/18 03:35:10;;;;;;;18.40;8.30;;;102.40;2227.20;;;;;;5035799;28;20468;-85
2022/01/18 03:37:36;;;;;;;9.68;6.00;;;77.70;2227.20;;;;;;5035642;28;20481;-85
2022/01/18 03:40:04;;;;;;;14.50;7.60;;;77.70;2227.20;;;;;;5035394;28;20465;-84
2022/01/18 03:45:02;;;;;;;20.20;9.82;;;77.60;2227.20;;;;;;5036755;28;20357;-85
2022/01/18 03:47:29;;;;;;;19.58;9.32;;;77.50;2227.20;;;;;;5035604;28;20377;-84
2022/01/18 03:49:58;;;;;;;27.60;14.02;;;77.50;2227.20;;;;;;5035242;28;20032;-84
2022/01/18 03:52:27;;;;;;;18.88;10.25;;;77.50;2227.20;;;;;;5035494;28;20029;-85
2022/01/18 03:55:01;;;;;;;19.90;9.32;;;77.50;2227.20;;;;;;5035210;28;20027;-84
2022/01/18 03:57:37;;;;;;;17.73;9.13;;;77.50;2227.20;;;;;;5035000;28;20033;-84
2022/01/18 04:00:23;;;;;;;21.85;11.20;;;77.50;2227.20;;;;;;5035323;28;20183;-84
2022/01/18 04:02:55;;;;;;;21.42;11.65;;;77.60;2227.20;;;;;;5034180;28;20041;-84
2022/01/18 04:05:32;;;;;;;19.02;10.68;;;77.60;2227.20;;;;;;5035082;28;20040;-83
2022/01/18 04:08:08;;;;;;;45.03;21.65;;;77.50;2227.20;;;;;;5032055;28;20037;-84
2022/01/18 04:10:45;;;;;;;48.33;20.85;;;77.40;2227.20;;;;;;5034702;28;20021;-85
2022/01/18 04:13:37;;;;;;;25.65;12.52;;;77.30;2227.20;;;;;;5034833;28;20381;-84
2022/01/18 04:16:14;;;;;;;23.52;12.48;;;77.20;2227.20;;;;;;5034923;28;20357;-84
2022/01/18 04:27:29;;;;;;;85.18;47.03;;;77.00;2227.20;;;;;;5035745;28;20029;-84
2022/01/18 04:29:55;;;;;;;72.22;42.92;;;77.00;2227.20;;;;;;5034577;28;20108;-85
2022/01/18 04:32:21;;;;;;;42.97;24.70;;;77.00;2227.20;;;;;;5034208;28;20120;-84
2022/01/18 04:34:49;;;;;;;56.10;30.13;;;76.90;2227.20;;;;;;5034038;28;20109;-84
2022/01/18 04:37:15;;;;;;;28.75;16.05;;;76.90;2227.20;;;;;;5034696;28;20021;-84
2022/01/18 04:39:46;;;;;;;26.58;14.80;;;77.00;2227.20;;;;;;5034559;28;20419;-84
2022/01/18 04:42:29;;;;;;;10.48;6.90;;;77.00;2227.20;;;;;;5034180;28;20151;-84
2022/01/18 04:50:23;;;;;;;14.45;10.00;;;77.10;2227.20;;;;;;5035459;28;20037;-85
2022/01/18 04:53:09;;;;;;;19.10;10.82;;;77.10;2227.20;;;;;;5034454;28;20021;-85
2022/01/18 04:56:14;;;;;;;11.45;7.03;;;77.10;2227.20;;;;;;5033892;28;20056;-84
2022/01/18 04:59:18;;;;;;;6.72;3.67;;;77.10;2227.20;;;;;;5034994;28;20076;-85
2022/01/18 05:05:36;;;;;;;10.57;4.03;;;77.10;2227.20;;;;;;5035168;28;20124;-85
2022/01/18 05:08:19;;;;;;;9.00;5.10;;;77.10;2227.20;;;;;;5034195;28;20067;-84
2022/01/18 05:10:56;;;;;;;4.57;2.08;;;77.10;2227.20;;;;;;5033716;28;20021;-85
2022/01/18 05:21:26;;;;;;;7.28;3.83;;;77.10;2227.20;;;;;;5035041;28;20463;-84
2022/01/18 05:23:52;;;;;;;13.38;4.65;;;77.00;2227.20;;;;;;5033206;28;20108;-84
2022/01/18 05:26:18;;;;;;;7.18;3.75;;;77.00;2227.20;;;;;;5033600;28;20460;-84
2022/01/18 05:28:44;;;;;;;13.13;4.47;;;77.00;2227.20;;;;;;5034866;28;20029;-83
2022/01/18 05:31:10;;;;;;;8.82;4.85;;;77.00;2227.20;;;;;;5033118;28;20120;-84
2022/01/18 05:33:40;;;;;;;7.38;4.32;;;76.90;2227.20;;;;;;5033539;28;20060;-84
2022/01/18 05:36:06;;;;;;;6.47;3.70;;;76.90;2227.20;;;;;;5033528;28;20051;-84
2022/01/18 05:38:33;;;;;;;7.95;4.55;;;76.90;2227.20;;;;;;5032903;28;20021;-83
2022/01/18 05:41:00;;;;;;;10.20;5.45;;;76.90;2227.20;;;;;;5033249;28;20109;-84
2022/01/18 05:43:26;;;;;;;14.68;7.93;;;76.90;2227.20;;;;;;5033475;28;20022;-84
2022/01/18 05:45:52;;;;;;;11.02;7.43;;;76.90;2227.20;;;;;;5033163;28;20025;-84
2022/01/18 05:48:18;;;;;;;26.55;15.15;;;76.90;2227.20;;;;;;5033350;28;20095;-84
2022/01/18 05:50:43;;;;;;;21.58;13.38;;;76.90;2227.20;;;;;;5033350;28;20025;-84
2022/01/18 05:53:09;;;;;;;18.90;11.15;;;76.90;2227.20;;;;;;5032800;28;20033;-84
2022/01/18 05:55:35;;;;;;;12.60;7.88;;;76.90;2227.20;;;;;;5033019;28;20049;-84
2022/01/18 05:58:04;;;;;;;12.98;9.07;;;76.90;2227.20;;;;;;5032983;28;20078;-84
2022/01/18 06:00:31;;;;;;;14.27;8.60;;;76.90;2227.20;;;;;;5032576;28;20120;-84
2022/01/18 06:08:12;;;;;;;22.65;16.27;;;77.00;2227.20;;;;;;5034040;28;20228;-83
2022/01/18 06:10:39;;;;;;;15.45;9.90;;;77.30;2227.20;;;;;;5032899;28;20025;-84
2022/01/18 06:13:07;;;;;;;10.15;7.40;;;77.60;2227.20;;;;;;5032497;28;20028;-84
2022/01/18 06:15:33;;;;;;;15.82;9.20;;;77.10;2227.20;;;;;;5033070;28;20024;-85
2022/01/18 06:17:59;;;;;;;33.78;18.77;;;77.00;2227.20;;;;;;5032955;28;20059;-84
2022/01/18 06:20:25;;;;;;;27.70;17.13;;;77.00;2227.20;;;;;;5032946;28;20049;-84
2022/01/18 06:22:51;;;;;;;38.38;23.80;;;77.00;2227.20;;;;;;5032955;28;20112;-84
2022/01/18 06:25:20;;;;;;;40.72;25.83;;;77.00;2227.20;;;;;;5032925;28;20426;-85
2022/01/18 06:27:47;;;;;;;16.27;9.38;;;77.00;2227.20;;;;;;5032566;28;20133;-85
2022/01/18 06:30:13;;;;;;;17.73;9.00;;;76.80;2227.20;;;;;;5032436;28;20028;-87
2022/01/18 06:32:43;;;;;;;19.20;9.02;;;77.00;2227.20;;;;;;5032945;28;20485;-84
2022/01/18 06:35:11;;;;;;;15.43;8.57;;;77.00;2227.20;;;;;;5032363;28;20025;-84
2022/01/18 06:37:38;;;;;;;17.13;8.75;;;76.90;2227.20;;;;;;5032662;28;20029;-83
2022/01/18 06:40:06;;;;;;;28.02;20.17;;;76.90;2227.20;;;;;;5032756;28;20021;-84
2022/01/18 06:42:32;;;;;;;22.30;12.25;;;76.90;2227.20;;;;;;5031756;28;20457;-84
2022/01/18 06:45:02;;;;;;;18.80;10.85;;;77.00;2227.20;;;;;;5032285;28;20053;-84
2022/01/18 06:47:28;;;;;;;17.98;8.13;;;76.90;2227.20;;;;;;5032543;28;20022;-83
2022/01/18 06:49:54;;;;;;;19.85;13.23;;;76.90;2227.20;;;;;;5032346;28;20483;-84
2022/01/18 06:52:20;;;;;;;16.83;8.43;;;76.90;2227.20;;;;;;5032534;28;20036;-84
2022/01/18 06:54:50;;;;;;;15.30;8.52;;;77.00;2227.20;;;;;;5032310;28;20044;-85
2022/01/18 06:57:15;;;;;;;66.03;28.70;;;76.90;2227.20;;;;;;5032410;28;20026;-85
2022/01/18 06:59:41;;;;;;;67.80;29.95;;;77.00;2227.20;;;;;;5032285;28;20116;-84
2022/01/18 07:02:07;;;;;;;54.42;22.88;;;77.00;2227.20;;;;;;5032312;28;20045;-84
2022/01/18 07:04:34;;;;;;;54.35;27.55;;;77.00;2227.20;;;;;;5032041;28;20095;-84
2022/01/18 07:07:00;;;;;;;18.88;9.35;;;77.00;2227.20;;;;;;5032149;28;20028;-85
2022/01/18 07:09:26;;;;;;;34.35;17.02;;;77.10;2227.20;;;;;;5032252;28;20018;-85
2022/01/18 07:11:56;;;;;;;28.05;15.25;;;77.10;2227.20;;;;;;5032255;28;20032;-83
2022/01/18 07:14:23;;;;;;;18.25;9.90;;;77.10;2227.20;;;;;;5032311;28;20670;-85
2022/01/18 07:16:49;;;;;;;33.08;17.00;;;77.20;2227.20;;;;;;5031909;28;20075;-84
2022/01/18 07:19:15;;;;;;;17.67;9.38;;;77.20;2227.20;;;;;;5033456;28;20453;-84
2022/01/18 07:21:42;;;;;;;18.52;10.93;;;77.20;2227.20;;;;;;5032315;28;20365;-85
2022/01/18 07:24:25;;;;;;;23.25;11.80;;;77.20;2227.20;;;;;;5033289;28;20083;-84
2022/01/18 07:26:50;;;;;;;29.50;14.13;;;77.20;2227.20;;;;;;5035832;28;20148;-85
2022/01/18 07:29:16;;;;;;;26.38;13.07;;;77.30;2227.20;;;;;;5035900;28;20120;-84
2022/01/18 07:31:42;;;;;;;20.17;11.50;;;77.30;2227.20;;;;;;5035600;28;20138;-84
2022/01/18 07:34:08;;;;;;;23.83;11.80;;;77.30;2227.20;;;;;;5035685;28;20021;-85
2022/01/18 07:36:34;;;;;;;21.00;11.15;;;77.50;2227.20;;;;;;5035683;28;20029;-84
2022/01/18 07:39:00;;;;;;;23.65;12.25;;;77.40;2227.20;;;;;;5035392;28;20043;-84
2022/01/18 07:41:25;;;;;;;19.38;10.73;;;77.40;2227.20;;;;;;5035616;28;20017;-84
2022/01/18 07:43:51;;;;;;;17.88;10.27;;;77.50;2227.20;;;;;;5035116;28;20442;-84
2022/01/18 07:46:17;;;;;;;17.98;8.85;;;77.50;2227.20;;;;;;5035021;28;20376;-84
2022/01/18 07:48:43;;;;;;;15.55;8.43;;;77.50;2227.20;;;;;;5035524;28;20020;-84
2022/01/18 07:51:11;;;;;;;15.55;6.18;;;77.60;2227.20;;;;;;5034872;28;20013;-84
2022/01/18 07:53:37;;;;;;;16.83;9.73;;;77.60;2227.20;;;;;;5035684;28;20022;-84
2022/01/18 07:56:04;;;;;;;14.52;9.07;;;77.60;2227.20;;;;;;5035668;28;20029;-85
2022/01/18 07:58:29;;;;;;;13.30;7.28;;;77.60;2227.20;;;;;;5057936;28;20020;-83
2022/01/18 08:00:57;;;;;;;13.85;8.35;;;77.60;2227.20;;;;;;5060110;28;20014;-83
2022/01/18 08:03:23;;;;;;;14.32;9.00;;;77.60;2227.20;;;;;;5059738;28;20072;-82
2022/01/18 08:05:51;;;;;;;10.95;6.22;;;77.70;2227.20;;;;;;5050538;28;20048;-84
2022/01/18 08:08:17;;;;;;;16.55;9.35;;;77.70;2227.20;;;;;;5034982;28;20021;-84
2022/01/18 08:10:43;;;;;;;16.95;8.40;;;77.70;2227.20;;;;;;5035079;28;20361;-86
2022/01/18 08:13:09;;;;;;;9.45;5.15;;;77.70;2227.20;;;;;;5034737;28;20017;-82
2022/01/18 08:15:39;;;;;;;12.63;7.03;;;77.70;2227.20;;;;;;5034927;28;20473;-84
2022/01/18 08:24:25;;;;;;;13.48;6.85;;;77.70;2227.20;;;;;;5035898;28;20015;-84
2022/01/18 08:26:51;;;;;;;12.15;6.90;;;77.60;2227.20;;;;;;5034472;28;20029;-84
2022/01/18 08:29:17;;;;;;;15.50;7.28;;;77.60;2227.20;;;;;;5034666;28;20519;-83
2022/01/18 08:31:44;;;;;;;40.63;17.65;;;77.70;2227.20;;;;;;5034527;28;20048;-83
2022/01/18 08:34:11;;;;;;;25.95;13.43;;;77.70;2227.20;;;;;;5034234;28;20017;-83
2022/01/18 08:36:40;;;;;;;15.88;10.45;;;102.40;2227.20;;;;;;5033195;28;20025;-83
2022/01/18 08:39:07;;;;;;;19.52;10.95;;;102.40;2227.20;;;;;;5034517;28;20056;-83
2022/01/18 08:41:33;;;;;;;24.55;15.88;;;102.50;2227.20;;;;;;5034441;28;20018;-83
2022/01/18 08:43:59;;;;;;;20.25;13.55;;;102.50;2227.20;;;;;;5034341;28;20029;-83
2022/01/18 08:46:25;;;;;;;17.23;12.18;;;102.60;2227.20;;;;;;5034318;28;20026;-83
2022/01/18 08:48:51;;;;;;;20.88;11.05;;;102.60;2227.20;;;;;;5034012;28;20078;-83
2022/01/18 08:51:18;;;;;;;15.23;9.30;;;102.60;2227.20;;;;;;5034113;28;20026;-84
2022/01/18 08:53:53;;;;;;;15.82;12.13;;;102.60;2227.20;;;;;;5033827;28;20025;-82
2022/01/18 08:56:22;;;;;;;18.30;10.57;;;102.70;2227.20;;;;;;5033887;28;20478;-82
2022/01/18 08:58:49;;;;;;;20.13;12.30;;;102.70;2227.20;;;;;;5034810;28;20376;-82
2022/01/18 09:01:24;;;;;;;21.50;15.38;;;102.70;2227.20;;;;;;5033671;28;20021;-83
2022/01/18 09:04:28;;;;;;;19.58;9.07;;;102.80;2227.20;;;;;;4997636;28;20515;-83
2022/01/18 09:06:56;;;;;;;19.20;11.00;;;102.80;2227.20;;;;;;4919611;29;20020;-84
2022/01/18 09:09:22;;;;;;;25.17;15.75;;;102.70;2227.20;;;;;;4919419;29;20024;-83
2022/01/18 09:11:48;;;;;;;30.30;17.92;;;102.80;2227.20;;;;;;4957060;28;20036;-82
2022/01/18 09:14:15;;;;;;;14.05;6.15;;;102.80;2227.20;;;;;;4997698;28;20021;-83
2022/01/18 09:16:42;;;;;;;14.38;7.78;;;102.90;2227.20;;;;;;4996932;28;20029;-82
2022/01/18 09:19:08;;;;;;;15.45;7.97;;;102.80;2227.20;;;;;;5014951;28;20026;-83
2022/01/18 09:21:34;;;;;;;17.85;8.32;;;102.80;2227.20;;;;;;4997510;28;20025;-83
2022/01/18 09:24:01;;;;;;;20.42;10.43;;;102.90;2227.20;;;;;;5014783;28;20018;-83
2022/01/18 09:26:27;;;;;;;14.20;7.47;;;102.90;2227.20;;;;;;4997415;28;20029;-83
2022/01/18 09:28:53;;;;;;;14.23;8.20;;;102.90;2227.20;;;;;;4997214;28;20374;-82
2022/01/18 09:31:19;;;;;;;15.30;7.40;;;102.90;2227.20;;;;;;4997532;28;20462;-83
2022/01/18 09:33:45;;;;;;;15.20;8.50;;;102.70;2227.20;;;;;;4997306;28;20028;-82
2022/01/18 09:36:12;;;;;;;13.32;7.45;;;103.00;2227.20;;;;;;4996929;28;20458;-83
2022/01/18 09:38:38;;;;;;;12.43;7.15;;;103.00;2227.20;;;;;;4997074;28;20030;-83
2022/01/18 09:41:10;;;;;;;13.80;7.20;;;103.00;2227.20;;;;;;5014939;28;20032;-83
2022/01/18 09:43:40;;;;;;;11.32;6.45;;;103.00;2227.20;;;;;;4997070;28;20061;-84
2022/01/18 09:46:07;;;;;;;13.45;6.80;;;103.00;2227.20;;;;;;4997175;28;20129;-85
2022/01/18 09:48:33;;;;;;;8.98;5.40;;;103.10;2227.20;;;;;;4996958;28;20026;-83
2022/01/18 09:51:00;;;;;;;12.50;6.80;;;103.10;2227.20;;;;;;4997010;28;20017;-84
2022/01/18 09:53:41;;;;;;;10.63;5.13;;;103.10;2227.20;;;;;;4996952;28;20079;-83
2022/01/18 09:56:07;;;;;;;17.33;9.20;;;103.10;2227.20;;;;;;4997106;28;20061;-84
2022/01/18 09:58:33;;;;;;;13.63;7.53;;;103.20;2227.20;;;;;;4996791;28;20057;-83
2022/01/18 10:01:21;;;;;;;13.27;5.88;;;103.20;2227.20;;;;;;4997079;28;20060;-84
2022/01/18 10:04:05;;;;;;;11.02;5.65;;;103.20;2227.20;;;;;;5031676;28;20435;-83
2022/01/18 10:06:42;;;;;;;10.98;4.93;;;103.20;2227.20;;;;;;5032944;28;20021;-83
2022/01/18 10:09:16;;;;;;;9.48;4.15;;;103.10;2227.20;;;;;;5032991;28;20021;-84
2022/01/18 10:12:12;;;;;;;10.75;4.63;;;103.30;2227.20;;;;;;5033021;28;20042;-83
2022/01/18 10:14:58;;;;;;;11.43;7.20;;;103.20;2227.20;;;;;;5033869;28;20017;-83
2022/01/18 10:17:36;;;;;;;7.85;4.03;;;103.30;2227.20;;;;;;5030982;28;20041;-81
2022/01/18 10:20:20;;;;;;;9.85;4.90;;;128.00;2252.80;;;;;;5030739;28;20109;-81
2022/01/18 10:22:49;;;;;;;16.15;9.30;;;128.00;2252.80;;;;;;5031933;28;20040;-82
2022/01/18 10:25:25;;;;;;;16.90;8.43;;;128.00;2252.80;;;;;;5032263;28;20025;-84
2022/01/18 10:27:53;;;;;;;10.70;5.15;;;128.20;2252.80;;;;;;5031663;28;20369;-81
2022/01/18 10:30:44;;;;;;;11.15;5.25;;;128.20;2227.20;;;;;;5031942;28;20029;-80
2022/01/18 10:33:20;;;;;;;10.02;5.43;;;128.10;2227.20;;;;;;5032421;28;20044;-82
2022/01/18 10:36:21;;;;;;;10.93;5.75;;;128.30;2227.20;;;;;;5031883;28;20048;-82
2022/01/18 10:38:48;;;;;;;9.38;4.95;;;128.40;2201.60;;;;;;4969945;28;20030;-81
2022/01/18 10:41:34;;;;;;;9.63;4.15;;;128.40;2176.00;;;;;;5015965;28;20079;-82
2022/01/18 10:44:13;;;;;;;12.10;7.25;;;128.40;2201.60;;;;;;5032715;28;20357;-82
2022/01/18 10:46:41;;;;;;;13.48;7.10;;;128.50;2176.00;;;;;;5031958;28;20025;-83
2022/01/18 10:49:07;;;;;;;11.93;4.90;;;128.50;2176.00;;;;;;5029510;28;20120;-84
2022/01/18 10:51:39;;;;;;;12.75;7.90;;;128.50;2176.00;;;;;;5031989;28;20022;-83
2022/01/18 10:54:09;;;;;;;11.27;6.95;;;128.70;2176.00;;;;;;5028909;28;20372;-83
2022/01/18 10:56:44;;;;;;;14.35;8.20;;;128.80;2176.00;;;;;;5030357;28;20029;-81
2022/01/18 10:59:25;;;;;;;14.30;8.00;;;128.80;2150.40;;;;;;5033103;28;20120;-82
2022/01/18 11:02:08;;;;;;;10.10;5.30;;;128.90;2099.20;;;;;;5015373;28;20081;-81
2022/01/18 11:04:34;;;;;;;10.05;4.70;;;128.90;2099.20;;;;;;5030771;28;20049;-82
2022/01/18 11:07:03;;;;;;;15.98;8.55;;;128.80;2099.20;;;;;;5034905;28;20052;-80
2022/01/18 11:09:30;;;;;;;11.18;5.68;;;128.90;2099.20;;;;;;5036390;28;20023;-82
2022/01/18 11:11:56;;;;;;;10.68;4.22;;;153.60;2099.20;;;;;;5034976;28;20021;-82
2022/01/18 11:14:23;;;;;;;12.38;4.97;;;128.90;2073.60;;;;;;5034936;28;20021;-81
2022/01/18 11:16:51;;;;;;;10.55;4.72;;;128.90;2099.20;;;;;;5034860;28;20112;-79
2022/01/18 11:21:50;;;;;;;8.85;4.30;;;153.60;2124.80;;;;;;5035911;28;20482;-82
2022/01/18 11:24:17;;;;;;;9.48;4.50;;;153.60;2099.20;;;;;;5035341;28;20025;-84
2022/01/18 11:26:44;;;;;;;12.98;6.05;;;153.60;2073.60;;;;;;5034424;28;20112;-82
2022/01/18 11:29:11;;;;;;;13.57;5.53;;;153.60;2124.80;;;;;;5034727;28;20060;-84
2022/01/18 11:31:40;;;;;;;11.85;4.88;;;153.80;2099.20;;;;;;5034870;28;20036;-81
2022/01/18 11:34:09;;;;;;;8.27;4.30;;;154.00;2099.20;;;;;;5034123;28;20028;-81
2022/01/18 11:36:44;;;;;;;15.82;8.20;;;154.20;2073.60;;;;;;5035613;28;20056;-82
2022/01/18 11:39:11;;;;;;;13.75;7.55;;;154.30;2048.00;;;;;;5034902;28;20071;-80
2022/01/18 11:41:37;;;;;;;21.00;11.65;;;154.50;2048.00;;;;;;5035547;28;20021;-83
2022/01/18 11:44:18;;;;;;;13.23;7.53;;;179.40;2022.40;;;;;;5034633;28;20021;-83
2022/01/18 11:46:48;;;;;;;13.40;7.40;;;179.50;1996.80;;;;;;5034714;28;20098;-82
2022/01/18 11:49:21;;;;;;;19.73;11.15;;;179.60;1996.80;;;;;;5034025;28;20020;-83
2022/01/18 11:51:49;;;;;;;27.65;14.55;;;179.80;1971.20;;;;;;5034334;28;20025;-82
2022/01/18 11:57:24;;;;;;;22.17;11.80;;;179.90;1920.00;;;;;;5034318;28;20026;-83
2022/01/18 11:59:56;;;;;;;16.52;8.88;;;204.80;1971.20;;;;;;5034743;28;20024;-83
2022/01/18 12:02:43;;;;;;;23.60;12.30;;;204.80;1894.40;;;;;;5034784;28;20042;-82
2022/01/18 12:05:14;;;;;;;28.52;14.73;;;205.10;1920.00;;;;;;5034777;28;20017;-82
2022/01/18 12:07:42;;;;;;;14.07;7.57;;;205.20;1843.20;;;;;;5034809;28;20086;-81
2022/01/18 12:10:38;;;;;;;9.00;4.78;;;205.20;1817.60;;;;;;5034652;28;20365;-79
2022/01/18 12:13:10;;;;;;;17.35;10.55;;;205.30;1843.20;;;;;;5027066;28;20029;-79
2022/01/18 12:15:36;;;;;;;17.27;9.20;;;205.50;1817.60;;;;;;5034812;28;20462;-82
2022/01/18 12:18:10;;;;;;;14.73;8.02;;;205.40;1817.60;;;;;;5034654;28;20057;-82
2022/01/18 12:20:48;;;;;;;12.20;5.20;;;205.40;1817.60;;;;;;5035895;28;20021;-82
2022/01/18 12:23:44;;;;;;;15.13;6.63;;;205.40;1792.00;;;;;;5034653;28;20470;-80
2022/01/18 12:34:34;;;;;;;22.10;9.70;;;205.40;1792.00;;;;;;5035829;28;20361;-80
2022/01/18 12:37:06;;;;;;;28.20;15.20;;;205.50;1792.00;;;;;;5035829;28;20053;-83
2022/01/18 12:39:50;;;;;;;21.65;11.43;;;230.40;1817.60;;;;;;5034281;28;20453;-82
2022/01/18 12:45:21;;;;;;;21.77;11.30;;;230.70;1817.60;;;;;;5034588;28;20083;-75
2022/01/18 12:47:51;;;;;;;14.02;7.90;;;230.90;1817.60;;;;;;5033066;28;20528;-78
2022/01/18 12:50:22;;;;;;;9.55;6.03;;;231.10;1792.00;;;;;;5033742;28;20120;-76
2022/01/18 12:52:49;;;;;;;11.55;5.65;;;230.90;1740.80;;;;;;5034687;28;20029;-75
2022/01/18 12:55:54;;;;;;;20.33;10.82;;;230.90;1792.00;;;;;;5032982;28;20052;-76
2022/01/18 12:58:28;;;;;;;13.50;6.82;;;230.60;1766.40;;;;;;5034026;28;20087;-77
2022/01/18 13:01:12;;;;;;;18.90;9.23;;;230.90;1792.00;;;;;;5033220;28;20390;-77
2022/01/18 13:03:46;;;;;;;11.63;5.32;;;231.00;1740.80;;;;;;5032168;28;20053;-78
2022/01/18 13:06:15;;;;;;;14.23;7.13;;;230.70;1740.80;;;;;;5032778;28;20029;-79
2022/01/18 13:08:50;;;;;;;11.10;6.95;;;230.90;1766.40;;;;;;5030382;28;20026;-78
2022/01/18 13:11:42;;;;;;;42.10;22.95;;;230.90;1792.00;;;;;;5031368;28;20079;-78
2022/01/18 13:14:13;;;;;;;41.67;23.00;;;231.10;1792.00;;;;;;5032882;28;20051;-82
2022/01/18 13:28:02;;;;;;;15.98;9.55;;;231.10;1740.80;;;;;;5033280;28;20116;-79
2022/01/18 13:30:21;;;;;;;19.33;10.90;;;230.90;1740.80;;;;;;5025348;28;20449;-82
2022/01/18 13:32:48;;;;;;;13.35;7.03;;;230.90;1766.40;;;;;;5033362;28;20022;-78
2022/01/18 13:35:16;;;;;;;18.83;9.63;;;230.60;1766.40;;;;;;5033620;28;20024;-79
2022/01/18 13:37:41;;;;;;;23.58;14.45;;;230.40;1792.00;;;;;;5033009;28;20021;-79
2022/01/18 13:40:15;;;;;;;27.30;19.30;;;205.70;1894.40;;;;;;5032631;28;20026;-81
2022/01/18 13:42:47;;;;;;;25.65;16.77;;;205.50;1868.80;;;;;;5031838;28;20025;-81
2022/01/18 13:45:18;;;;;;;24.90;14.13;;;205.30;1945.60;;;;;;5034540;28;20476;-80
2022/01/18 13:47:59;;;;;;;18.63;11.73;;;205.20;1945.60;;;;;;5034891;28;20037;-81
2022/01/18 13:50:58;;;;;;;20.13;12.95;;;205.00;1945.60;;;;;;5034327;28;20527;-79
2022/01/18 13:53:27;;;;;;;18.17;8.35;;;204.90;1920.00;;;;;;5030970;28;20429;-79
2022/01/18 13:55:56;;;;;;;17.02;11.02;;;204.80;1894.40;;;;;;5032173;28;20025;-78
2022/01/18 13:58:28;;;;;;;17.40;10.85;;;180.10;1894.40;;;;;;5031250;28;20116;-80
2022/01/18 14:01:14;;;;;;;12.57;7.77;;;180.10;1894.40;;;;;;5031715;28;20464;-80
2022/01/18 14:03:43;;;;;;;11.73;6.05;;;180.00;1894.40;;;;;;5031308;28;20041;-79
2022/01/18 14:06:11;;;;;;;12.18;6.13;;;180.00;1843.20;;;;;;5032510;28;20021;-80
2022/01/18 14:08:40;;;;;;;11.98;4.85;;;179.90;1843.20;;;;;;5031159;28;20247;-79
2022/01/18 14:11:15;;;;;;;18.75;10.48;;;180.00;1843.20;;;;;;5030838;28;20017;-79
2022/01/18 14:13:41;;;;;;;16.77;10.73;;;205.00;1894.40;;;;;;5030497;28;20449;-80